Главная страница
METAR-TAF:

METAR-TAF

Аэропорты :

Harriman-and-West Airport

North Adams, Массачусетс, США

широта: 42-41-50N, долгота: 073-10-13W, высота над уровнем моря: 199 м

Текущие метеонаблюдения

Эта сводка был подготовлена 50 минут назад, в 12:52 UTC
Ветер 10 Узел от западный
Температура 3°C
Влажность 81%
Давление 1017 hPa
Видимость: 16.1 км
Сплошная облачность на высоте 2200 фута

METAR: KAQW 171252Z AUTO 26010KT 10SM OVC022 03/00 A3003 RMK AO2 SLP175 T00330000

Время: 08:42 (13:42 UTC)


TAF: отсутствует

Метеонаблюдения и прогнозы для более 4000 аэропортов (сводки METAR и TAF).

Имеющиеся станции представлены на карте желтыми и красными точками.

Чтобы увидеть название станции, наведите на нее мышь.

Затем щелкните, чтобы увидеть метеонаблюдения и метеопрогнозы.

Управление картой: чтобы увеличить масштаб, щелкните зеленые кнопки с черным крестиком; чтобы уменьшить масштаб, щелкните зеленую кнопку с тире; для просмотра соседних карт щелкайте зеленые стрелки.


METAR-TAF: